createdAt,value
2022-10-14T00:00:42.719Z,12.64
2022-10-14T00:03:09.133Z,12.63
2022-10-14T00:05:39.856Z,12.62
2022-10-14T00:08:08.780Z,12.60
2022-10-14T00:10:37.833Z,12.64
2022-10-14T00:13:04.332Z,12.65
2022-10-14T00:15:30.859Z,12.66
2022-10-14T00:17:57.360Z,12.67
2022-10-14T00:20:23.891Z,12.67
2022-10-14T00:22:51.445Z,12.70
2022-10-14T00:25:18.001Z,12.72
2022-10-14T00:27:44.368Z,12.68
2022-10-14T00:30:14.786Z,12.63
2022-10-14T00:32:41.763Z,12.61
2022-10-14T00:35:09.000Z,12.62
2022-10-14T00:37:35.396Z,12.62
2022-10-14T00:40:01.783Z,12.62
2022-10-14T00:42:32.696Z,12.62
2022-10-14T00:45:07.481Z,12.64
2022-10-14T00:47:35.669Z,12.66
2022-10-14T00:50:02.969Z,12.69
2022-10-14T00:52:30.634Z,12.71
2022-10-14T00:55:01.886Z,12.72
2022-10-14T00:57:29.419Z,12.69
2022-10-14T01:00:02.388Z,12.64
2022-10-14T01:02:29.756Z,12.64
2022-10-14T01:04:56.616Z,12.64
2022-10-14T01:07:32.297Z,12.66
2022-10-14T01:10:31.167Z,12.67
2022-10-14T01:13:17.089Z,12.68
2022-10-14T01:15:55.188Z,12.72
2022-10-14T01:18:48.702Z,12.72
2022-10-14T01:21:33.459Z,12.75
2022-10-14T01:24:18.720Z,12.76
2022-10-14T01:27:19.673Z,12.73
2022-10-14T01:30:01.253Z,12.72
2022-10-14T01:32:52.260Z,12.69
2022-10-14T01:35:37.194Z,12.66
2022-10-14T01:38:11.073Z,12.62
2022-10-14T01:40:46.613Z,12.60
2022-10-14T01:43:19.259Z,12.63
2022-10-14T01:45:49.525Z,12.60
2022-10-14T01:48:19.496Z,12.61
2022-10-14T01:50:49.830Z,12.60
2022-10-14T01:53:29.304Z,12.60
2022-10-14T01:55:57.557Z,12.59
2022-10-14T01:58:27.882Z,12.62
2022-10-14T02:00:54.774Z,12.62
2022-10-14T02:03:21.180Z,12.63
2022-10-14T02:06:03.494Z,12.63
2022-10-14T02:08:48.453Z,12.67
2022-10-14T02:11:18.011Z,12.67
2022-10-14T02:13:45.755Z,12.69
2022-10-14T02:16:52.766Z,12.71
2022-10-14T02:19:32.830Z,12.72
2022-10-14T02:22:08.531Z,12.71
2022-10-14T02:24:40.335Z,12.73
2022-10-14T02:27:14.723Z,12.72
2022-10-14T02:29:44.726Z,12.69
2022-10-14T02:32:15.190Z,12.67
2022-10-14T02:34:43.905Z,12.65
2022-10-14T02:37:12.556Z,12.65
2022-10-14T02:39:44.157Z,12.65
2022-10-14T02:42:10.716Z,12.65
2022-10-14T02:44:37.072Z,12.66
2022-10-14T02:47:03.593Z,12.63
2022-10-14T02:49:30.429Z,12.66
2022-10-14T02:51:57.048Z,12.65
2022-10-14T02:54:23.428Z,12.66
2022-10-14T02:56:49.838Z,12.65
2022-10-14T02:59:16.245Z,12.64
2022-10-14T03:01:42.759Z,12.65
2022-10-14T03:04:10.598Z,12.66
2022-10-14T03:06:37.000Z,12.67
2022-10-14T03:09:03.639Z,12.69
2022-10-14T03:11:34.561Z,12.68
2022-10-14T03:14:05.395Z,12.69
2022-10-14T03:16:31.957Z,12.67
2022-10-14T03:18:58.351Z,12.70
2022-10-14T03:21:39.325Z,12.68
2022-10-14T03:24:11.797Z,12.66
2022-10-14T03:26:38.764Z,12.66
2022-10-14T03:29:05.298Z,12.64
2022-10-14T03:31:52.200Z,12.64
2022-10-14T03:34:25.368Z,12.63
2022-10-14T03:37:02.433Z,12.63
2022-10-14T03:39:29.037Z,12.62
2022-10-14T03:42:02.382Z,12.61
2022-10-14T03:44:36.093Z,12.62
2022-10-14T03:47:16.193Z,12.63
2022-10-14T03:49:44.116Z,12.66
2022-10-14T03:52:17.902Z,12.66
2022-10-14T03:54:46.649Z,12.69
2022-10-14T03:57:15.769Z,12.67
2022-10-14T03:59:49.182Z,12.70
2022-10-14T04:02:16.434Z,12.71
2022-10-14T04:04:43.616Z,12.72
2022-10-14T04:07:10.613Z,12.76
2022-10-14T04:09:37.486Z,12.78
2022-10-14T04:12:06.537Z,12.79
2022-10-14T04:14:44.191Z,12.78
2022-10-14T04:17:10.824Z,12.78
2022-10-14T04:19:37.705Z,12.79
2022-10-14T04:22:04.649Z,12.79
2022-10-14T04:24:33.017Z,12.81
2022-10-14T04:26:59.513Z,12.83
2022-10-14T04:29:38.965Z,12.84
2022-10-14T04:32:12.588Z,12.81
2022-10-14T04:34:39.277Z,12.83
2022-10-14T04:37:07.161Z,12.82
2022-10-14T04:39:59.160Z,12.79
2022-10-14T04:42:26.266Z,12.79
2022-10-14T04:44:58.150Z,12.79
2022-10-14T04:47:35.718Z,12.80
2022-10-14T04:50:02.199Z,12.80
2022-10-14T04:52:31.609Z,12.82
2022-10-14T04:55:05.213Z,12.82
2022-10-14T04:57:36.671Z,12.77
2022-10-14T05:00:05.161Z,12.78
2022-10-14T05:02:54.525Z,12.78
2022-10-14T05:05:27.193Z,12.70
2022-10-14T05:07:56.764Z,12.73
2022-10-14T05:10:29.061Z,12.71
2022-10-14T05:12:55.961Z,12.72
2022-10-14T05:15:25.021Z,12.69
2022-10-14T05:18:00.314Z,12.68
2022-10-14T05:20:42.204Z,12.64
2022-10-14T05:23:08.600Z,12.65
2022-10-14T05:25:35.024Z,12.64
2022-10-14T05:28:01.485Z,12.64
2022-10-14T05:30:33.656Z,12.60
2022-10-14T05:33:01.645Z,12.57
2022-10-14T05:35:57.152Z,12.54
2022-10-14T05:38:15.960Z,12.52
2022-10-14T05:40:51.601Z,12.48
2022-10-14T05:43:18.229Z,12.46
2022-10-14T05:45:44.983Z,12.46
2022-10-14T05:48:11.425Z,12.43
2022-10-14T05:50:38.472Z,12.43
2022-10-14T05:53:11.421Z,12.46
2022-10-14T05:55:44.067Z,12.46
2022-10-14T05:58:10.693Z,12.49
2022-10-14T06:00:40.469Z,12.48
2022-10-14T06:03:13.071Z,12.52
2022-10-14T06:05:40.181Z,12.55
2022-10-14T06:08:07.653Z,12.56
2022-10-14T06:10:36.716Z,12.56
2022-10-14T06:13:03.649Z,12.59
2022-10-14T06:15:31.328Z,12.60
2022-10-14T06:17:57.771Z,12.62
2022-10-14T06:20:25.567Z,12.63
2022-10-14T06:22:51.935Z,12.64
2022-10-14T06:25:18.929Z,12.62
2022-10-14T06:27:45.313Z,12.63
2022-10-14T06:30:12.570Z,12.65
2022-10-14T06:32:38.983Z,12.67
2022-10-14T06:35:05.803Z,12.68
2022-10-14T06:37:32.192Z,12.69
2022-10-14T06:39:58.551Z,12.69
2022-10-14T06:42:25.256Z,12.69
2022-10-14T06:44:51.828Z,12.67
2022-10-14T06:47:18.236Z,12.68
2022-10-14T06:49:44.615Z,12.72
2022-10-14T06:52:11.122Z,12.73
2022-10-14T06:54:39.616Z,12.77
2022-10-14T06:57:06.433Z,12.83
2022-10-14T06:59:32.881Z,12.88
2022-10-14T07:01:59.310Z,12.92
2022-10-14T07:04:25.723Z,12.94
2022-10-14T07:06:52.316Z,12.99
2022-10-14T07:09:19.141Z,13.05
2022-10-14T07:11:45.562Z,13.10
2022-10-14T07:14:12.002Z,13.13
2022-10-14T07:16:38.518Z,13.13
2022-10-14T07:19:04.923Z,13.15
2022-10-14T07:21:31.349Z,13.15
2022-10-14T07:23:57.717Z,13.18
2022-10-14T07:26:24.118Z,13.18
2022-10-14T07:28:50.561Z,13.19
2022-10-14T07:31:17.021Z,13.21
2022-10-14T07:33:43.533Z,13.25
2022-10-14T07:36:15.110Z,13.30
2022-10-14T07:38:44.515Z,13.33
2022-10-14T07:41:17.176Z,13.40
2022-10-14T07:43:45.533Z,13.44
2022-10-14T07:46:13.591Z,13.51
2022-10-14T07:48:57.452Z,13.57
2022-10-14T07:51:24.618Z,13.63
2022-10-14T07:53:52.804Z,13.68
2022-10-14T07:56:19.835Z,13.71
2022-10-14T07:58:46.576Z,13.77
2022-10-14T08:01:15.274Z,13.85
2022-10-14T08:03:43.549Z,13.89
2022-10-14T08:06:10.116Z,13.92
2022-10-14T08:08:37.034Z,13.96
2022-10-14T08:11:19.508Z,14.00
2022-10-14T08:13:46.557Z,13.98
2022-10-14T08:16:12.964Z,14.01
2022-10-14T08:18:39.381Z,14.04
2022-10-14T08:21:05.739Z,14.05
2022-10-14T08:23:32.889Z,14.11
2022-10-14T08:25:59.359Z,14.17
2022-10-14T08:28:25.821Z,14.24
2022-10-14T08:30:53.326Z,14.30
2022-10-14T08:33:20.008Z,14.35
2022-10-14T08:35:50.227Z,14.46
2022-10-14T08:38:24.618Z,14.57
2022-10-14T08:41:06.286Z,14.63
2022-10-14T08:43:53.571Z,14.67
2022-10-14T08:46:51.137Z,14.66
2022-10-14T08:49:35.414Z,14.75
2022-10-14T08:52:09.216Z,14.77
2022-10-14T08:54:44.979Z,14.76
2022-10-14T08:57:17.634Z,14.76
2022-10-14T08:59:44.981Z,14.77
2022-10-14T09:02:47.704Z,14.76
2022-10-14T09:05:15.925Z,14.75
2022-10-14T09:07:43.532Z,14.74
2022-10-14T09:10:28.634Z,14.90
2022-10-14T09:12:58.588Z,14.98
2022-10-14T09:15:34.608Z,15.01
2022-10-14T09:18:31.091Z,15.08
2022-10-14T09:20:58.795Z,15.15
2022-10-14T09:23:27.674Z,15.25
2022-10-14T09:26:17.359Z,15.34
2022-10-14T09:28:45.013Z,15.38
2022-10-14T09:31:12.972Z,15.47
2022-10-14T09:33:42.581Z,15.55
2022-10-14T09:36:20.987Z,15.64
2022-10-14T09:38:52.689Z,15.66
2022-10-14T09:41:30.803Z,15.69
2022-10-14T09:44:32.794Z,15.75
2022-10-14T09:47:03.459Z,15.83
2022-10-14T09:49:39.460Z,15.80
2022-10-14T09:52:08.065Z,15.75
2022-10-14T09:54:35.060Z,15.76
2022-10-14T09:57:08.144Z,15.77
2022-10-14T09:59:51.430Z,15.72
2022-10-14T10:02:24.119Z,15.73
2022-10-14T10:04:50.941Z,15.67
2022-10-14T10:07:33.079Z,15.66
2022-10-14T10:10:02.623Z,15.63
2022-10-14T10:12:33.910Z,15.64
2022-10-14T10:15:06.234Z,15.65
2022-10-14T10:17:40.463Z,15.72
2022-10-14T10:20:18.834Z,15.80
2022-10-14T10:22:46.101Z,15.83
2022-10-14T10:25:12.450Z,15.86
2022-10-14T10:27:45.527Z,15.86
2022-10-14T10:30:14.684Z,15.94
2022-10-14T10:32:51.409Z,16.04
2022-10-14T10:35:52.033Z,16.11
2022-10-14T10:38:38.926Z,16.19
2022-10-14T10:41:36.242Z,16.24
2022-10-14T10:44:31.287Z,16.33
2022-10-14T10:47:14.906Z,16.42
2022-10-14T10:49:53.347Z,16.48
2022-10-14T10:52:44.779Z,16.48
2022-10-14T10:55:32.691Z,16.47
2022-10-14T10:58:11.598Z,16.31
2022-10-14T11:00:54.691Z,16.23
2022-10-14T11:03:44.346Z,16.20
2022-10-14T11:06:41.292Z,16.22
2022-10-14T11:09:38.402Z,16.14
2022-10-14T11:12:23.358Z,16.10
2022-10-14T11:15:08.371Z,16.09
2022-10-14T11:17:48.539Z,16.13
2022-10-14T11:20:43.936Z,16.22
2022-10-14T11:23:36.517Z,16.37
2022-10-14T11:26:20.636Z,16.50
2022-10-14T11:28:56.462Z,16.54
2022-10-14T11:31:47.205Z,16.61
2022-10-14T11:34:28.360Z,16.67
2022-10-14T11:37:22.014Z,16.65
2022-10-14T11:39:57.173Z,16.55
2022-10-14T11:42:32.517Z,16.47
2022-10-14T11:45:20.335Z,16.45
2022-10-14T11:48:04.223Z,16.47
2022-10-14T11:50:39.116Z,16.45
2022-10-14T11:53:16.475Z,16.49
2022-10-14T11:55:49.597Z,16.45
2022-10-14T11:58:22.574Z,16.46
2022-10-14T12:00:53.189Z,16.51
2022-10-14T12:03:49.838Z,16.51
2022-10-14T12:06:26.312Z,16.48
2022-10-14T12:08:57.570Z,16.52
2022-10-14T12:11:35.866Z,16.50
2022-10-14T12:14:40.770Z,16.46
2022-10-14T12:17:18.608Z,16.36
2022-10-14T12:19:45.790Z,16.26
2022-10-14T12:22:20.248Z,16.13
2022-10-14T12:24:52.269Z,16.06
2022-10-14T12:27:21.384Z,15.98
2022-10-14T12:29:51.383Z,15.90
2022-10-14T12:32:20.935Z,15.83
2022-10-14T12:34:49.920Z,15.75
2022-10-14T12:37:35.260Z,15.74
2022-10-14T12:40:02.059Z,15.69
2022-10-14T12:42:38.764Z,15.67
2022-10-14T12:45:34.763Z,15.64
2022-10-14T12:48:07.324Z,15.59
2022-10-14T12:50:42.357Z,15.53
2022-10-14T12:53:21.426Z,15.48
2022-10-14T12:55:54.532Z,15.38
2022-10-14T12:58:35.029Z,15.30
2022-10-14T13:01:21.893Z,15.24
2022-10-14T13:03:58.588Z,15.23
2022-10-14T13:06:29.870Z,15.27
2022-10-14T13:09:11.468Z,15.32
2022-10-14T13:11:46.451Z,15.36
2022-10-14T13:14:53.336Z,15.45
2022-10-14T13:17:41.705Z,15.61
2022-10-14T13:20:47.174Z,15.73
2022-10-14T13:23:35.882Z,15.81
2022-10-14T13:26:36.007Z,15.96
2022-10-14T13:29:16.155Z,16.08
2022-10-14T13:32:00.000Z,16.15
2022-10-14T13:34:41.269Z,16.19
2022-10-14T13:37:24.417Z,16.18
2022-10-14T13:39:50.805Z,16.19
2022-10-14T13:42:39.407Z,16.23
2022-10-14T13:45:12.658Z,16.26
2022-10-14T13:47:43.183Z,16.24
2022-10-14T13:50:12.226Z,16.21
2022-10-14T13:52:39.625Z,16.20
2022-10-14T13:55:22.019Z,16.18
2022-10-14T13:58:12.384Z,16.05
2022-10-14T14:00:59.721Z,15.99
2022-10-14T14:03:35.055Z,15.97
2022-10-14T14:06:08.821Z,15.87
2022-10-14T14:08:45.101Z,15.83
2022-10-14T14:11:38.300Z,15.82
2022-10-14T14:14:37.075Z,15.78
2022-10-14T14:17:06.569Z,15.75
2022-10-14T14:19:42.077Z,15.82
2022-10-14T14:22:28.934Z,15.88
2022-10-14T14:25:33.439Z,15.90
2022-10-14T14:28:05.749Z,15.87
2022-10-14T14:30:37.696Z,15.85
2022-10-14T14:33:10.896Z,15.87
2022-10-14T14:35:37.418Z,15.87
2022-10-14T14:38:04.097Z,15.87
2022-10-14T14:40:31.346Z,15.87
2022-10-14T14:43:00.659Z,15.87
2022-10-14T14:45:56.732Z,15.87
2022-10-14T14:48:23.776Z,15.85
2022-10-14T14:50:50.650Z,15.79
2022-10-14T14:53:20.637Z,15.74
2022-10-14T14:56:13.558Z,15.70
2022-10-14T14:58:47.015Z,15.66
2022-10-14T15:01:21.111Z,15.64
2022-10-14T15:04:13.647Z,15.62
2022-10-14T15:06:51.095Z,15.58
2022-10-14T15:09:23.405Z,15.56
2022-10-14T15:11:55.359Z,15.59
2022-10-14T15:14:49.211Z,15.56
2022-10-14T15:17:29.708Z,15.54
2022-10-14T15:19:59.833Z,15.49
2022-10-14T15:22:52.813Z,15.52
2022-10-14T15:25:31.376Z,15.42
2022-10-14T15:28:02.187Z,15.50
2022-10-14T15:30:40.658Z,15.51
2022-10-14T15:33:22.153Z,15.50
2022-10-14T15:36:13.532Z,15.46
2022-10-14T15:38:39.894Z,15.42
2022-10-14T15:41:06.277Z,15.40
2022-10-14T15:43:34.581Z,15.37
2022-10-14T15:46:19.705Z,15.38
2022-10-14T15:48:49.888Z,15.33
2022-10-14T15:51:17.880Z,15.33
2022-10-14T15:53:44.276Z,15.30
2022-10-14T15:56:10.787Z,15.28
2022-10-14T15:58:37.369Z,15.24
2022-10-14T16:01:04.905Z,15.21
2022-10-14T16:03:34.805Z,15.18
2022-10-14T16:06:07.587Z,15.16
2022-10-14T16:08:34.924Z,15.14
2022-10-14T16:11:04.270Z,15.14
2022-10-14T16:13:30.630Z,15.12
2022-10-14T16:16:00.483Z,15.08
2022-10-14T16:18:27.100Z,15.04
2022-10-14T16:20:57.178Z,15.03
2022-10-14T16:23:29.685Z,15.05
2022-10-14T16:26:00.100Z,15.02
2022-10-14T16:28:26.601Z,15.00
2022-10-14T16:30:53.081Z,14.98
2022-10-14T16:33:23.920Z,14.95
2022-10-14T16:35:53.160Z,14.91
2022-10-14T16:38:20.258Z,14.90
2022-10-14T16:40:54.329Z,14.84
2022-10-14T16:43:20.702Z,14.85
2022-10-14T16:45:47.161Z,14.82
2022-10-14T16:48:13.945Z,14.83
2022-10-14T16:50:40.313Z,14.81
2022-10-14T16:53:25.200Z,14.78
2022-10-14T16:55:56.680Z,14.77
2022-10-14T16:58:23.429Z,14.77
2022-10-14T17:00:49.822Z,14.76
2022-10-14T17:03:18.240Z,14.74
2022-10-14T17:05:46.889Z,14.73
2022-10-14T17:08:13.717Z,14.72
2022-10-14T17:10:41.838Z,14.71
2022-10-14T17:13:08.209Z,14.61
2022-10-14T17:15:37.933Z,14.68
2022-10-14T17:18:04.310Z,14.68
2022-10-14T17:20:30.698Z,14.68
2022-10-14T17:22:57.108Z,14.67
2022-10-14T17:25:23.477Z,14.65
2022-10-14T17:27:50.058Z,14.67
2022-10-14T17:30:16.742Z,14.64
2022-10-14T17:32:43.120Z,14.67
2022-10-14T17:35:12.832Z,14.67
2022-10-14T17:37:42.408Z,14.66
2022-10-14T17:40:09.381Z,14.63
2022-10-14T17:42:38.210Z,14.68
2022-10-14T17:45:05.022Z,14.68
2022-10-14T17:47:31.408Z,14.67
2022-10-14T17:49:57.781Z,14.64
2022-10-14T17:52:24.223Z,14.63
2022-10-14T17:54:50.652Z,14.59
2022-10-14T17:57:17.050Z,14.56
2022-10-14T17:59:43.393Z,14.52
2022-10-14T18:02:17.184Z,14.51
2022-10-14T18:04:43.684Z,14.49
2022-10-14T18:07:10.157Z,14.47
2022-10-14T18:09:36.559Z,14.45
2022-10-14T18:12:08.815Z,14.45
2022-10-14T18:14:35.942Z,14.45
2022-10-14T18:17:02.309Z,14.44
2022-10-14T18:19:28.765Z,14.46
2022-10-14T18:21:55.136Z,14.47
2022-10-14T18:24:21.635Z,14.47
2022-10-14T18:26:51.410Z,14.46
2022-10-14T18:29:17.921Z,14.46
2022-10-14T18:31:44.417Z,14.45
2022-10-14T18:34:11.812Z,14.44
2022-10-14T18:36:38.847Z,14.41
2022-10-14T18:39:08.093Z,14.40
2022-10-14T18:41:36.774Z,14.38
2022-10-14T18:44:04.568Z,14.37
2022-10-14T18:46:34.033Z,14.36
2022-10-14T18:49:02.255Z,14.36
2022-10-14T18:51:31.145Z,14.27
2022-10-14T18:54:00.693Z,14.33
2022-10-14T18:56:33.085Z,14.32
2022-10-14T19:01:36.684Z,14.29
2022-10-14T19:04:05.874Z,14.29
2022-10-14T19:06:33.510Z,14.26
2022-10-14T19:09:03.366Z,14.24
2022-10-14T19:11:31.848Z,14.18
2022-10-14T19:13:59.722Z,14.19
2022-10-14T19:16:27.749Z,14.20
2022-10-14T19:18:58.354Z,14.19
2022-10-14T19:21:32.075Z,14.17
2022-10-14T19:23:59.813Z,14.15
2022-10-14T19:26:30.944Z,14.13
2022-10-14T19:28:59.060Z,14.12
2022-10-14T19:31:28.339Z,14.10
2022-10-14T19:33:56.175Z,14.08
2022-10-14T19:36:24.874Z,14.05
2022-10-14T19:38:57.654Z,14.04
2022-10-14T19:41:32.119Z,14.03
2022-10-14T19:43:59.665Z,14.03
2022-10-14T19:46:27.780Z,14.03
2022-10-14T19:49:02.155Z,14.00
2022-10-14T19:51:29.176Z,14.01
2022-10-14T19:53:56.024Z,13.98
2022-10-14T19:56:22.819Z,13.96
2022-10-14T19:58:52.877Z,13.94
2022-10-14T20:01:21.063Z,13.94
2022-10-14T20:03:47.557Z,13.93
2022-10-14T20:06:14.202Z,13.93
2022-10-14T20:08:41.249Z,13.90
2022-10-14T20:11:10.250Z,13.89
2022-10-14T20:13:39.926Z,13.86
2022-10-14T20:16:08.801Z,13.87
2022-10-14T20:18:35.525Z,13.84
2022-10-14T20:21:03.201Z,13.79
2022-10-14T20:23:29.715Z,13.80
2022-10-14T20:26:00.852Z,13.81
2022-10-14T20:28:27.385Z,13.79
2022-10-14T20:30:54.225Z,13.79
2022-10-14T20:33:20.969Z,13.79
2022-10-14T20:35:47.354Z,13.79
2022-10-14T20:38:13.833Z,13.80
2022-10-14T20:40:40.296Z,13.78
2022-10-14T20:43:06.682Z,13.75
2022-10-14T20:45:33.114Z,13.72
2022-10-14T20:47:59.510Z,13.71
2022-10-14T20:50:26.053Z,13.70
2022-10-14T20:52:52.465Z,13.70
2022-10-14T20:55:18.969Z,13.68
2022-10-14T20:57:46.167Z,13.64
2022-10-14T21:00:13.207Z,13.65
2022-10-14T21:02:39.636Z,13.65
2022-10-14T21:05:06.295Z,13.67
2022-10-14T21:07:32.665Z,13.66
2022-10-14T21:09:59.006Z,13.67
2022-10-14T21:12:26.024Z,13.66
2022-10-14T21:14:52.718Z,13.67
2022-10-14T21:17:19.306Z,13.66
2022-10-14T21:19:48.062Z,13.69
2022-10-14T21:22:14.575Z,13.69
2022-10-14T21:24:41.614Z,13.69
2022-10-14T21:27:08.113Z,13.68
2022-10-14T21:29:34.618Z,13.69
2022-10-14T21:32:02.494Z,13.69
2022-10-14T21:34:30.047Z,13.70
2022-10-14T21:36:56.859Z,13.72
2022-10-14T21:39:24.204Z,13.73
2022-10-14T21:41:51.340Z,13.75
2022-10-14T21:44:20.306Z,13.74
2022-10-14T21:46:48.014Z,13.74
2022-10-14T21:49:14.813Z,13.77
2022-10-14T21:51:41.334Z,13.78
2022-10-14T21:54:10.743Z,13.78
2022-10-14T21:56:37.183Z,13.79
2022-10-14T21:59:04.172Z,13.80
2022-10-14T22:01:30.802Z,13.80
2022-10-14T22:04:00.648Z,13.81
2022-10-14T22:06:27.784Z,13.82
2022-10-14T22:08:56.273Z,13.81
2022-10-14T22:11:30.126Z,13.82
2022-10-14T22:13:58.775Z,13.81
2022-10-14T22:16:26.151Z,13.81
2022-10-14T22:18:53.671Z,13.83
2022-10-14T22:21:23.267Z,13.82
2022-10-14T22:23:50.711Z,13.82
2022-10-14T22:26:22.920Z,13.85
2022-10-14T22:28:50.178Z,13.83
2022-10-14T22:31:19.464Z,13.81
2022-10-14T22:33:46.072Z,13.84
2022-10-14T22:36:21.027Z,13.82
2022-10-14T22:38:52.333Z,13.85
2022-10-14T22:41:20.162Z,13.83
2022-10-14T22:43:51.746Z,13.83
2022-10-14T22:46:20.375Z,13.84
2022-10-14T22:48:56.011Z,13.86
2022-10-14T22:53:57.033Z,13.84
2022-10-14T22:56:25.621Z,13.83
2022-10-14T22:58:57.158Z,13.83
2022-10-14T23:01:24.079Z,13.83
2022-10-14T23:03:50.540Z,13.81
2022-10-14T23:06:17.142Z,13.78
2022-10-14T23:08:43.936Z,13.82
2022-10-14T23:11:15.286Z,13.84
2022-10-14T23:13:42.096Z,13.82
2022-10-14T23:16:13.788Z,13.84
2022-10-14T23:21:20.376Z,13.87
2022-10-14T23:23:48.605Z,13.87
2022-10-14T23:26:17.558Z,13.86
2022-10-14T23:28:49.091Z,13.88
2022-10-14T23:31:17.902Z,13.90
2022-10-14T23:33:44.810Z,13.89
2022-10-14T23:36:13.266Z,13.90
2022-10-14T23:38:40.263Z,13.92
2022-10-14T23:41:07.857Z,13.92
2022-10-14T23:43:34.522Z,13.93
2022-10-14T23:46:01.282Z,13.89
2022-10-14T23:48:28.019Z,13.92
2022-10-14T23:50:54.886Z,13.94
2022-10-14T23:53:21.448Z,13.94
2022-10-14T23:55:47.868Z,13.94
2022-10-14T23:58:14.889Z,13.92
